sensor_id;sensor_type;location;lat;lon;timestamp;P1;durP1;ratioP1;P2;durP2;ratioP2
43626;SDS011;29217;52.586;13.442;2023-12-14T00:00:19;21.52;;;7.35;;
43626;SDS011;29217;52.586;13.442;2023-12-14T00:02:45;20.08;;;7.78;;
43626;SDS011;29217;52.586;13.442;2023-12-14T00:05:11;19.30;;;7.10;;
43626;SDS011;29217;52.586;13.442;2023-12-14T00:07:36;24.58;;;8.32;;
43626;SDS011;29217;52.586;13.442;2023-12-14T00:10:02;20.45;;;8.70;;
43626;SDS011;29217;52.586;13.442;2023-12-14T00:12:30;21.30;;;8.07;;
43626;SDS011;29217;52.586;13.442;2023-12-14T00:14:56;20.45;;;8.63;;
43626;SDS011;29217;52.586;13.442;2023-12-14T00:17:22;23.17;;;8.98;;
43626;SDS011;29217;52.586;13.442;2023-12-14T00:19:48;17.00;;;7.80;;
43626;SDS011;29217;52.586;13.442;2023-12-14T00:22:14;15.98;;;7.88;;
43626;SDS011;29217;52.586;13.442;2023-12-14T00:24:40;23.63;;;8.00;;
43626;SDS011;29217;52.586;13.442;2023-12-14T00:27:06;21.73;;;9.07;;
43626;SDS011;29217;52.586;13.442;2023-12-14T00:29:32;19.17;;;8.00;;
43626;SDS011;29217;52.586;13.442;2023-12-14T00:31:58;19.05;;;7.60;;
43626;SDS011;29217;52.586;13.442;2023-12-14T00:34:24;23.75;;;8.38;;
43626;SDS011;29217;52.586;13.442;2023-12-14T00:36:50;22.10;;;8.20;;
43626;SDS011;29217;52.586;13.442;2023-12-14T00:39:16;19.67;;;8.02;;
43626;SDS011;29217;52.586;13.442;2023-12-14T00:41:42;20.00;;;7.28;;
43626;SDS011;29217;52.586;13.442;2023-12-14T00:44:08;24.40;;;7.53;;
43626;SDS011;29217;52.586;13.442;2023-12-14T00:46:34;18.35;;;7.07;;
43626;SDS011;29217;52.586;13.442;2023-12-14T00:49:00;12.95;;;6.40;;
43626;SDS011;29217;52.586;13.442;2023-12-14T00:51:27;13.25;;;6.57;;
43626;SDS011;29217;52.586;13.442;2023-12-14T00:53:53;13.77;;;5.55;;
43626;SDS011;29217;52.586;13.442;2023-12-14T00:56:19;18.58;;;6.18;;
43626;SDS011;29217;52.586;13.442;2023-12-14T00:58:45;13.93;;;6.57;;
43626;SDS011;29217;52.586;13.442;2023-12-14T01:01:11;22.63;;;7.25;;
43626;SDS011;29217;52.586;13.442;2023-12-14T01:03:37;12.63;;;6.55;;
43626;SDS011;29217;52.586;13.442;2023-12-14T01:06:03;15.90;;;6.22;;
43626;SDS011;29217;52.586;13.442;2023-12-14T01:08:29;15.60;;;6.78;;
43626;SDS011;29217;52.586;13.442;2023-12-14T01:10:55;21.17;;;7.30;;
43626;SDS011;29217;52.586;13.442;2023-12-14T01:13:21;16.35;;;6.47;;
43626;SDS011;29217;52.586;13.442;2023-12-14T01:15:47;15.90;;;7.22;;
43626;SDS011;29217;52.586;13.442;2023-12-14T01:18:13;18.35;;;6.97;;
43626;SDS011;29217;52.586;13.442;2023-12-14T01:20:39;14.88;;;6.00;;
43626;SDS011;29217;52.586;13.442;2023-12-14T01:23:05;16.52;;;6.00;;
43626;SDS011;29217;52.586;13.442;2023-12-14T01:25:34;6.88;;;4.38;;
43626;SDS011;29217;52.586;13.442;2023-12-14T01:28:00;11.18;;;5.40;;
43626;SDS011;29217;52.586;13.442;2023-12-14T01:30:26;16.25;;;6.78;;
43626;SDS011;29217;52.586;13.442;2023-12-14T01:32:52;15.45;;;6.57;;
43626;SDS011;29217;52.586;13.442;2023-12-14T01:35:18;12.13;;;5.40;;
43626;SDS011;29217;52.586;13.442;2023-12-14T01:37:44;12.35;;;4.93;;
43626;SDS011;29217;52.586;13.442;2023-12-14T01:40:10;14.50;;;6.85;;
43626;SDS011;29217;52.586;13.442;2023-12-14T01:42:36;15.57;;;7.45;;
43626;SDS011;29217;52.586;13.442;2023-12-14T01:45:03;14.25;;;6.43;;
43626;SDS011;29217;52.586;13.442;2023-12-14T01:47:29;12.10;;;5.30;;
43626;SDS011;29217;52.586;13.442;2023-12-14T01:49:55;15.35;;;6.70;;
43626;SDS011;29217;52.586;13.442;2023-12-14T01:52:21;7.55;;;4.38;;
43626;SDS011;29217;52.586;13.442;2023-12-14T01:54:47;11.73;;;4.63;;
43626;SDS011;29217;52.586;13.442;2023-12-14T01:57:13;12.25;;;6.25;;
43626;SDS011;29217;52.586;13.442;2023-12-14T01:59:39;23.77;;;6.22;;
43626;SDS011;29217;52.586;13.442;2023-12-14T02:02:05;13.35;;;5.78;;
43626;SDS011;29217;52.586;13.442;2023-12-14T02:04:32;15.93;;;6.65;;
43626;SDS011;29217;52.586;13.442;2023-12-14T02:06:58;16.73;;;6.65;;
43626;SDS011;29217;52.586;13.442;2023-12-14T02:09:25;17.05;;;6.88;;
43626;SDS011;29217;52.586;13.442;2023-12-14T02:11:51;17.40;;;6.75;;
43626;SDS011;29217;52.586;13.442;2023-12-14T02:14:17;22.05;;;6.43;;
43626;SDS011;29217;52.586;13.442;2023-12-14T02:16:43;15.25;;;7.07;;
43626;SDS011;29217;52.586;13.442;2023-12-14T02:19:09;12.27;;;6.75;;
43626;SDS011;29217;52.586;13.442;2023-12-14T02:21:35;17.25;;;7.57;;
43626;SDS011;29217;52.586;13.442;2023-12-14T02:24:01;13.85;;;6.55;;
43626;SDS011;29217;52.586;13.442;2023-12-14T02:26:27;14.73;;;6.70;;
43626;SDS011;29217;52.586;13.442;2023-12-14T02:28:53;15.68;;;6.75;;
43626;SDS011;29217;52.586;13.442;2023-12-14T02:31:19;16.60;;;6.53;;
43626;SDS011;29217;52.586;13.442;2023-12-14T02:33:45;14.45;;;6.18;;
43626;SDS011;29217;52.586;13.442;2023-12-14T02:36:11;13.52;;;6.25;;
43626;SDS011;29217;52.586;13.442;2023-12-14T02:38:37;16.70;;;6.97;;
43626;SDS011;29217;52.586;13.442;2023-12-14T02:41:03;13.70;;;6.53;;
43626;SDS011;29217;52.586;13.442;2023-12-14T02:43:29;15.52;;;7.38;;
43626;SDS011;29217;52.586;13.442;2023-12-14T02:45:55;14.95;;;7.07;;
43626;SDS011;29217;52.586;13.442;2023-12-14T02:48:26;13.65;;;6.50;;
43626;SDS011;29217;52.586;13.442;2023-12-14T02:50:53;17.65;;;7.03;;
43626;SDS011;29217;52.586;13.442;2023-12-14T02:53:19;14.90;;;6.93;;
43626;SDS011;29217;52.586;13.442;2023-12-14T02:55:45;19.42;;;6.80;;
43626;SDS011;29217;52.586;13.442;2023-12-14T02:58:11;21.08;;;7.45;;
43626;SDS011;29217;52.586;13.442;2023-12-14T03:00:37;17.20;;;7.30;;
43626;SDS011;29217;52.586;13.442;2023-12-14T03:03:03;15.40;;;7.35;;
43626;SDS011;29217;52.586;13.442;2023-12-14T03:05:29;12.75;;;6.50;;
43626;SDS011;29217;52.586;13.442;2023-12-14T03:07:55;14.00;;;6.85;;
43626;SDS011;29217;52.586;13.442;2023-12-14T03:10:21;15.35;;;6.35;;
43626;SDS011;29217;52.586;13.442;2023-12-14T03:12:47;15.95;;;6.70;;
43626;SDS011;29217;52.586;13.442;2023-12-14T03:15:13;16.80;;;6.65;;
43626;SDS011;29217;52.586;13.442;2023-12-14T03:17:43;15.18;;;5.88;;
43626;SDS011;29217;52.586;13.442;2023-12-14T03:20:09;15.30;;;7.20;;
43626;SDS011;29217;52.586;13.442;2023-12-14T03:22:35;16.70;;;6.78;;
43626;SDS011;29217;52.586;13.442;2023-12-14T03:25:03;18.30;;;6.22;;
43626;SDS011;29217;52.586;13.442;2023-12-14T03:27:29;12.05;;;6.10;;
43626;SDS011;29217;52.586;13.442;2023-12-14T03:29:55;16.15;;;6.15;;
43626;SDS011;29217;52.586;13.442;2023-12-14T03:32:21;13.13;;;6.05;;
43626;SDS011;29217;52.586;13.442;2023-12-14T03:34:47;11.10;;;5.32;;
43626;SDS011;29217;52.586;13.442;2023-12-14T03:37:13;13.98;;;6.32;;
43626;SDS011;29217;52.586;13.442;2023-12-14T03:39:39;15.32;;;5.72;;
43626;SDS011;29217;52.586;13.442;2023-12-14T03:42:05;14.10;;;6.20;;
43626;SDS011;29217;52.586;13.442;2023-12-14T03:44:31;13.00;;;6.45;;
43626;SDS011;29217;52.586;13.442;2023-12-14T03:46:57;14.48;;;6.93;;
43626;SDS011;29217;52.586;13.442;2023-12-14T03:49:25;10.57;;;5.80;;
43626;SDS011;29217;52.586;13.442;2023-12-14T03:51:51;13.05;;;6.95;;
43626;SDS011;29217;52.586;13.442;2023-12-14T03:54:17;15.73;;;6.03;;
43626;SDS011;29217;52.586;13.442;2023-12-14T03:56:42;12.38;;;5.85;;
43626;SDS011;29217;52.586;13.442;2023-12-14T03:59:08;18.55;;;7.20;;
43626;SDS011;29217;52.586;13.442;2023-12-14T04:01:34;11.48;;;5.57;;
43626;SDS011;29217;52.586;13.442;2023-12-14T04:04:03;15.52;;;6.00;;
43626;SDS011;29217;52.586;13.442;2023-12-14T04:06:29;11.60;;;6.35;;
43626;SDS011;29217;52.586;13.442;2023-12-14T04:08:55;14.40;;;6.13;;
43626;SDS011;29217;52.586;13.442;2023-12-14T04:11:21;12.48;;;6.55;;
43626;SDS011;29217;52.586;13.442;2023-12-14T04:13:47;14.90;;;6.00;;
43626;SDS011;29217;52.586;13.442;2023-12-14T04:16:15;18.30;;;6.20;;
43626;SDS011;29217;52.586;13.442;2023-12-14T04:18:41;15.27;;;6.18;;
43626;SDS011;29217;52.586;13.442;2023-12-14T04:21:07;14.77;;;5.68;;
43626;SDS011;29217;52.586;13.442;2023-12-14T04:23:33;11.43;;;6.00;;
43626;SDS011;29217;52.586;13.442;2023-12-14T04:25:59;13.18;;;5.97;;
43626;SDS011;29217;52.586;13.442;2023-12-14T04:28:25;17.35;;;6.97;;
43626;SDS011;29217;52.586;13.442;2023-12-14T04:30:51;12.65;;;6.63;;
43626;SDS011;29217;52.586;13.442;2023-12-14T04:33:17;14.27;;;6.35;;
43626;SDS011;29217;52.586;13.442;2023-12-14T04:35:43;17.17;;;7.28;;
43626;SDS011;29217;52.586;13.442;2023-12-14T04:38:09;13.25;;;6.55;;
43626;SDS011;29217;52.586;13.442;2023-12-14T04:40:35;17.10;;;6.40;;
43626;SDS011;29217;52.586;13.442;2023-12-14T04:43:01;12.40;;;5.57;;
43626;SDS011;29217;52.586;13.442;2023-12-14T04:45:27;15.32;;;6.43;;
43626;SDS011;29217;52.586;13.442;2023-12-14T04:47:53;13.50;;;6.40;;
43626;SDS011;29217;52.586;13.442;2023-12-14T04:50:19;13.00;;;6.10;;
43626;SDS011;29217;52.586;13.442;2023-12-14T04:52:46;13.65;;;6.70;;
43626;SDS011;29217;52.586;13.442;2023-12-14T04:55:12;11.40;;;5.80;;
43626;SDS011;29217;52.586;13.442;2023-12-14T04:57:38;13.35;;;6.40;;
43626;SDS011;29217;52.586;13.442;2023-12-14T05:00:04;15.15;;;7.00;;
43626;SDS011;29217;52.586;13.442;2023-12-14T05:02:31;18.13;;;7.10;;
43626;SDS011;29217;52.586;13.442;2023-12-14T05:04:58;13.90;;;7.20;;
43626;SDS011;29217;52.586;13.442;2023-12-14T05:07:24;16.98;;;7.47;;
43626;SDS011;29217;52.586;13.442;2023-12-14T05:09:50;20.52;;;8.30;;
43626;SDS011;29217;52.586;13.442;2023-12-14T05:12:16;15.35;;;7.45;;
43626;SDS011;29217;52.586;13.442;2023-12-14T05:14:42;11.88;;;6.45;;
43626;SDS011;29217;52.586;13.442;2023-12-14T05:17:08;15.82;;;8.15;;
43626;SDS011;29217;52.586;13.442;2023-12-14T05:19:34;13.10;;;7.18;;
43626;SDS011;29217;52.586;13.442;2023-12-14T05:22:00;11.60;;;5.28;;
43626;SDS011;29217;52.586;13.442;2023-12-14T05:24:26;10.65;;;6.15;;
43626;SDS011;29217;52.586;13.442;2023-12-14T05:26:52;14.20;;;7.38;;
43626;SDS011;29217;52.586;13.442;2023-12-14T05:29:18;14.18;;;7.15;;
43626;SDS011;29217;52.586;13.442;2023-12-14T05:31:46;19.67;;;7.50;;
43626;SDS011;29217;52.586;13.442;2023-12-14T05:34:12;19.50;;;8.18;;
43626;SDS011;29217;52.586;13.442;2023-12-14T05:36:38;13.63;;;7.68;;
43626;SDS011;29217;52.586;13.442;2023-12-14T05:39:04;12.70;;;6.82;;
43626;SDS011;29217;52.586;13.442;2023-12-14T05:41:30;16.63;;;7.60;;
43626;SDS011;29217;52.586;13.442;2023-12-14T05:43:56;17.88;;;8.68;;
43626;SDS011;29217;52.586;13.442;2023-12-14T05:46:22;14.80;;;7.32;;
43626;SDS011;29217;52.586;13.442;2023-12-14T05:48:49;13.05;;;6.43;;
43626;SDS011;29217;52.586;13.442;2023-12-14T05:51:28;12.95;;;6.72;;
43626;SDS011;29217;52.586;13.442;2023-12-14T05:53:54;17.75;;;7.30;;
43626;SDS011;29217;52.586;13.442;2023-12-14T05:56:20;15.50;;;7.32;;
43626;SDS011;29217;52.586;13.442;2023-12-14T05:58:46;15.27;;;6.90;;
43626;SDS011;29217;52.586;13.442;2023-12-14T06:01:12;15.95;;;7.05;;
43626;SDS011;29217;52.586;13.442;2023-12-14T06:03:38;14.13;;;7.05;;
43626;SDS011;29217;52.586;13.442;2023-12-14T06:06:04;14.57;;;6.28;;
43626;SDS011;29217;52.586;13.442;2023-12-14T06:08:30;14.13;;;6.75;;
43626;SDS011;29217;52.586;13.442;2023-12-14T06:10:56;15.10;;;6.90;;
43626;SDS011;29217;52.586;13.442;2023-12-14T06:13:22;11.45;;;6.10;;
43626;SDS011;29217;52.586;13.442;2023-12-14T06:15:48;13.65;;;6.85;;
43626;SDS011;29217;52.586;13.442;2023-12-14T06:18:14;12.10;;;6.25;;
43626;SDS011;29217;52.586;13.442;2023-12-14T06:20:39;14.60;;;6.60;;
43626;SDS011;29217;52.586;13.442;2023-12-14T06:23:06;14.55;;;5.65;;
43626;SDS011;29217;52.586;13.442;2023-12-14T06:25:31;9.98;;;5.55;;
43626;SDS011;29217;52.586;13.442;2023-12-14T06:27:57;11.65;;;5.22;;
43626;SDS011;29217;52.586;13.442;2023-12-14T06:30:23;9.35;;;5.57;;
43626;SDS011;29217;52.586;13.442;2023-12-14T06:32:49;13.93;;;7.33;;
43626;SDS011;29217;52.586;13.442;2023-12-14T06:35:15;13.55;;;6.43;;
43626;SDS011;29217;52.586;13.442;2023-12-14T06:37:41;11.35;;;5.95;;
43626;SDS011;29217;52.586;13.442;2023-12-14T06:40:08;10.93;;;6.15;;
43626;SDS011;29217;52.586;13.442;2023-12-14T06:42:34;11.88;;;6.00;;
43626;SDS011;29217;52.586;13.442;2023-12-14T06:45:02;15.48;;;6.35;;
43626;SDS011;29217;52.586;13.442;2023-12-14T06:47:28;14.50;;;6.97;;
43626;SDS011;29217;52.586;13.442;2023-12-14T06:49:54;12.35;;;5.40;;
43626;SDS011;29217;52.586;13.442;2023-12-14T06:52:22;14.15;;;6.65;;
43626;SDS011;29217;52.586;13.442;2023-12-14T06:54:48;16.88;;;6.78;;
43626;SDS011;29217;52.586;13.442;2023-12-14T06:57:14;14.23;;;6.78;;
43626;SDS011;29217;52.586;13.442;2023-12-14T06:59:40;15.90;;;7.18;;
43626;SDS011;29217;52.586;13.442;2023-12-14T07:02:06;13.68;;;6.80;;
43626;SDS011;29217;52.586;13.442;2023-12-14T07:04:32;15.10;;;7.47;;
43626;SDS011;29217;52.586;13.442;2023-12-14T07:06:58;13.82;;;6.50;;
43626;SDS011;29217;52.586;13.442;2023-12-14T07:09:24;12.63;;;6.82;;
43626;SDS011;29217;52.586;13.442;2023-12-14T07:11:51;15.52;;;7.90;;
43626;SDS011;29217;52.586;13.442;2023-12-14T07:14:17;17.70;;;7.35;;
43626;SDS011;29217;52.586;13.442;2023-12-14T07:16:44;15.73;;;6.90;;
43626;SDS011;29217;52.586;13.442;2023-12-14T07:19:10;13.07;;;6.30;;
43626;SDS011;29217;52.586;13.442;2023-12-14T07:21:36;19.45;;;8.00;;
43626;SDS011;29217;52.586;13.442;2023-12-14T07:24:03;16.27;;;7.72;;
43626;SDS011;29217;52.586;13.442;2023-12-14T07:26:29;16.73;;;7.32;;
43626;SDS011;29217;52.586;13.442;2023-12-14T07:28:54;16.40;;;6.53;;
43626;SDS011;29217;52.586;13.442;2023-12-14T07:31:20;17.90;;;7.63;;
43626;SDS011;29217;52.586;13.442;2023-12-14T07:33:46;18.05;;;8.25;;
43626;SDS011;29217;52.586;13.442;2023-12-14T07:36:12;18.38;;;7.93;;
43626;SDS011;29217;52.586;13.442;2023-12-14T07:38:39;15.60;;;7.45;;
43626;SDS011;29217;52.586;13.442;2023-12-14T07:41:05;16.58;;;8.48;;
43626;SDS011;29217;52.586;13.442;2023-12-14T07:43:31;19.05;;;8.95;;
43626;SDS011;29217;52.586;13.442;2023-12-14T07:45:57;18.55;;;8.98;;
43626;SDS011;29217;52.586;13.442;2023-12-14T07:48:23;17.48;;;8.20;;
43626;SDS011;29217;52.586;13.442;2023-12-14T07:50:49;17.00;;;7.28;;
43626;SDS011;29217;52.586;13.442;2023-12-14T07:53:16;17.92;;;8.65;;
43626;SDS011;29217;52.586;13.442;2023-12-14T07:55:42;20.80;;;8.25;;
43626;SDS011;29217;52.586;13.442;2023-12-14T07:58:08;18.92;;;7.45;;
43626;SDS011;29217;52.586;13.442;2023-12-14T08:00:34;16.90;;;8.05;;
43626;SDS011;29217;52.586;13.442;2023-12-14T08:03:00;17.33;;;7.70;;
43626;SDS011;29217;52.586;13.442;2023-12-14T08:05:26;19.13;;;8.73;;
43626;SDS011;29217;52.586;13.442;2023-12-14T08:07:52;18.50;;;8.25;;
43626;SDS011;29217;52.586;13.442;2023-12-14T08:10:18;15.32;;;7.45;;
43626;SDS011;29217;52.586;13.442;2023-12-14T08:12:44;18.25;;;6.97;;
43626;SDS011;29217;52.586;13.442;2023-12-14T08:15:12;20.52;;;7.80;;
43626;SDS011;29217;52.586;13.442;2023-12-14T08:17:38;19.98;;;8.85;;
43626;SDS011;29217;52.586;13.442;2023-12-14T08:20:04;21.05;;;8.63;;
43626;SDS011;29217;52.586;13.442;2023-12-14T08:22:33;24.65;;;8.98;;
43626;SDS011;29217;52.586;13.442;2023-12-14T08:25:00;16.73;;;7.70;;
43626;SDS011;29217;52.586;13.442;2023-12-14T08:27:26;19.45;;;9.07;;
43626;SDS011;29217;52.586;13.442;2023-12-14T08:29:52;24.58;;;11.10;;
43626;SDS011;29217;52.586;13.442;2023-12-14T08:32:18;20.20;;;9.32;;
43626;SDS011;29217;52.586;13.442;2023-12-14T08:34:44;25.20;;;9.68;;
43626;SDS011;29217;52.586;13.442;2023-12-14T08:37:10;21.67;;;9.18;;
43626;SDS011;29217;52.586;13.442;2023-12-14T08:39:36;17.63;;;7.57;;
43626;SDS011;29217;52.586;13.442;2023-12-14T08:42:02;19.77;;;8.63;;
43626;SDS011;29217;52.586;13.442;2023-12-14T08:44:28;21.20;;;8.50;;
43626;SDS011;29217;52.586;13.442;2023-12-14T08:46:54;17.58;;;8.50;;
43626;SDS011;29217;52.586;13.442;2023-12-14T08:49:20;20.60;;;9.05;;
43626;SDS011;29217;52.586;13.442;2023-12-14T08:51:48;22.60;;;8.63;;
43626;SDS011;29217;52.586;13.442;2023-12-14T08:54:14;20.42;;;9.02;;
43626;SDS011;29217;52.586;13.442;2023-12-14T08:56:40;19.30;;;8.05;;
43626;SDS011;29217;52.586;13.442;2023-12-14T08:59:06;20.10;;;8.18;;
43626;SDS011;29217;52.586;13.442;2023-12-14T09:01:32;22.00;;;8.55;;
43626;SDS011;29217;52.586;13.442;2023-12-14T09:03:58;17.35;;;8.07;;
43626;SDS011;29217;52.586;13.442;2023-12-14T09:06:25;17.00;;;7.60;;
43626;SDS011;29217;52.586;13.442;2023-12-14T09:08:51;19.90;;;7.63;;
43626;SDS011;29217;52.586;13.442;2023-12-14T09:11:17;20.10;;;7.78;;
43626;SDS011;29217;52.586;13.442;2023-12-14T09:13:43;20.52;;;8.23;;
43626;SDS011;29217;52.586;13.442;2023-12-14T09:16:09;16.90;;;7.55;;
43626;SDS011;29217;52.586;13.442;2023-12-14T09:18:35;17.95;;;7.45;;
43626;SDS011;29217;52.586;13.442;2023-12-14T09:21:01;16.25;;;7.30;;
43626;SDS011;29217;52.586;13.442;2023-12-14T09:23:28;15.98;;;7.70;;
43626;SDS011;29217;52.586;13.442;2023-12-14T09:25:54;16.67;;;7.63;;
43626;SDS011;29217;52.586;13.442;2023-12-14T09:28:21;15.60;;;6.95;;
43626;SDS011;29217;52.586;13.442;2023-12-14T09:30:47;18.80;;;7.55;;
43626;SDS011;29217;52.586;13.442;2023-12-14T09:33:13;17.13;;;7.50;;
43626;SDS011;29217;52.586;13.442;2023-12-14T09:35:39;14.68;;;6.70;;
43626;SDS011;29217;52.586;13.442;2023-12-14T09:38:06;21.13;;;9.00;;
43626;SDS011;29217;52.586;13.442;2023-12-14T09:40:33;19.42;;;8.90;;
43626;SDS011;29217;52.586;13.442;2023-12-14T09:42:59;20.33;;;7.97;;
43626;SDS011;29217;52.586;13.442;2023-12-14T09:45:29;19.48;;;7.72;;
43626;SDS011;29217;52.586;13.442;2023-12-14T09:47:56;18.60;;;7.35;;
43626;SDS011;29217;52.586;13.442;2023-12-14T09:50:23;19.05;;;7.95;;
43626;SDS011;29217;52.586;13.442;2023-12-14T09:52:49;19.63;;;7.65;;
43626;SDS011;29217;52.586;13.442;2023-12-14T09:55:15;22.02;;;8.38;;
43626;SDS011;29217;52.586;13.442;2023-12-14T09:57:41;14.80;;;7.47;;
43626;SDS011;29217;52.586;13.442;2023-12-14T10:00:08;18.67;;;8.45;;
43626;SDS011;29217;52.586;13.442;2023-12-14T10:02:39;21.67;;;8.15;;
43626;SDS011;29217;52.586;13.442;2023-12-14T10:05:08;16.92;;;7.40;;
43626;SDS011;29217;52.586;13.442;2023-12-14T10:07:42;23.98;;;8.30;;
43626;SDS011;29217;52.586;13.442;2023-12-14T10:10:12;16.58;;;7.75;;
43626;SDS011;29217;52.586;13.442;2023-12-14T10:12:51;20.83;;;8.80;;
43626;SDS011;29217;52.586;13.442;2023-12-14T10:15:18;19.92;;;8.07;;
43626;SDS011;29217;52.586;13.442;2023-12-14T10:17:44;19.60;;;8.90;;
43626;SDS011;29217;52.586;13.442;2023-12-14T10:20:18;18.23;;;7.43;;
43626;SDS011;29217;52.586;13.442;2023-12-14T10:22:47;18.73;;;8.45;;
43626;SDS011;29217;52.586;13.442;2023-12-14T10:25:14;17.92;;;8.20;;
43626;SDS011;29217;52.586;13.442;2023-12-14T10:27:40;17.42;;;8.13;;
43626;SDS011;29217;52.586;13.442;2023-12-14T10:30:09;19.95;;;8.65;;
43626;SDS011;29217;52.586;13.442;2023-12-14T10:32:37;18.80;;;7.65;;
43626;SDS011;29217;52.586;13.442;2023-12-14T10:35:04;17.50;;;7.78;;
43626;SDS011;29217;52.586;13.442;2023-12-14T10:37:31;20.13;;;7.25;;
43626;SDS011;29217;52.586;13.442;2023-12-14T10:39:58;16.65;;;7.20;;
43626;SDS011;29217;52.586;13.442;2023-12-14T10:42:25;13.77;;;7.18;;
43626;SDS011;29217;52.586;13.442;2023-12-14T10:44:53;16.10;;;7.70;;
43626;SDS011;29217;52.586;13.442;2023-12-14T10:47:20;18.38;;;7.43;;
43626;SDS011;29217;52.586;13.442;2023-12-14T10:49:46;14.57;;;6.93;;
43626;SDS011;29217;52.586;13.442;2023-12-14T10:52:15;17.23;;;7.43;;
43626;SDS011;29217;52.586;13.442;2023-12-14T10:54:42;15.52;;;7.72;;
43626;SDS011;29217;52.586;13.442;2023-12-14T10:57:08;13.90;;;6.72;;
43626;SDS011;29217;52.586;13.442;2023-12-14T10:59:34;15.60;;;7.13;;
43626;SDS011;29217;52.586;13.442;2023-12-14T11:02:04;17.65;;;7.72;;
43626;SDS011;29217;52.586;13.442;2023-12-14T11:04:53;19.02;;;7.38;;
43626;SDS011;29217;52.586;13.442;2023-12-14T11:07:42;18.20;;;7.30;;
43626;SDS011;29217;52.586;13.442;2023-12-14T11:10:06;15.27;;;7.00;;
43626;SDS011;29217;52.586;13.442;2023-12-14T11:12:33;15.73;;;6.80;;
43626;SDS011;29217;52.586;13.442;2023-12-14T11:14:59;16.85;;;7.22;;
43626;SDS011;29217;52.586;13.442;2023-12-14T11:17:25;18.30;;;7.93;;
43626;SDS011;29217;52.586;13.442;2023-12-14T11:19:54;14.48;;;7.75;;
43626;SDS011;29217;52.586;13.442;2023-12-14T11:22:24;16.65;;;7.03;;
43626;SDS011;29217;52.586;13.442;2023-12-14T11:24:52;15.43;;;7.00;;
43626;SDS011;29217;52.586;13.442;2023-12-14T11:27:30;15.50;;;7.47;;
43626;SDS011;29217;52.586;13.442;2023-12-14T11:29:57;28.98;;;9.52;;
43626;SDS011;29217;52.586;13.442;2023-12-14T11:32:24;22.45;;;8.75;;
43626;SDS011;29217;52.586;13.442;2023-12-14T11:34:50;19.15;;;9.50;;
43626;SDS011;29217;52.586;13.442;2023-12-14T11:37:16;16.35;;;7.13;;
43626;SDS011;29217;52.586;13.442;2023-12-14T11:39:42;15.82;;;7.40;;
43626;SDS011;29217;52.586;13.442;2023-12-14T11:42:09;17.05;;;8.35;;
43626;SDS011;29217;52.586;13.442;2023-12-14T11:44:37;14.68;;;6.78;;
43626;SDS011;29217;52.586;13.442;2023-12-14T11:47:03;12.70;;;6.50;;
43626;SDS011;29217;52.586;13.442;2023-12-14T11:49:28;17.23;;;7.82;;
43626;SDS011;29217;52.586;13.442;2023-12-14T11:51:57;16.73;;;7.47;;
43626;SDS011;29217;52.586;13.442;2023-12-14T11:54:23;16.65;;;7.55;;
43626;SDS011;29217;52.586;13.442;2023-12-14T11:56:49;14.52;;;6.75;;
43626;SDS011;29217;52.586;13.442;2023-12-14T11:59:16;17.45;;;7.47;;
43626;SDS011;29217;52.586;13.442;2023-12-14T12:01:58;15.93;;;7.00;;
43626;SDS011;29217;52.586;13.442;2023-12-14T12:04:25;14.90;;;7.22;;
43626;SDS011;29217;52.586;13.442;2023-12-14T12:09:42;16.95;;;8.15;;
43626;SDS011;29217;52.586;13.442;2023-12-14T12:12:08;19.70;;;7.35;;
43626;SDS011;29217;52.586;13.442;2023-12-14T12:14:35;17.17;;;7.13;;
43626;SDS011;29217;52.586;13.442;2023-12-14T12:17:02;18.88;;;8.05;;
43626;SDS011;29217;52.586;13.442;2023-12-14T12:19:29;16.02;;;7.55;;
43626;SDS011;29217;52.586;13.442;2023-12-14T12:21:55;17.20;;;8.63;;
43626;SDS011;29217;52.586;13.442;2023-12-14T12:24:21;17.08;;;7.30;;
43626;SDS011;29217;52.586;13.442;2023-12-14T12:26:47;12.55;;;6.47;;
43626;SDS011;29217;52.586;13.442;2023-12-14T12:29:13;13.85;;;6.45;;
43626;SDS011;29217;52.586;13.442;2023-12-14T12:31:39;18.23;;;8.30;;
43626;SDS011;29217;52.586;13.442;2023-12-14T12:34:07;14.75;;;7.53;;
43626;SDS011;29217;52.586;13.442;2023-12-14T12:36:33;17.52;;;6.60;;
43626;SDS011;29217;52.586;13.442;2023-12-14T12:38:59;15.18;;;7.22;;
43626;SDS011;29217;52.586;13.442;2023-12-14T12:41:25;16.77;;;6.65;;
43626;SDS011;29217;52.586;13.442;2023-12-14T12:43:51;12.38;;;6.47;;
43626;SDS011;29217;52.586;13.442;2023-12-14T12:46:17;15.48;;;6.47;;
43626;SDS011;29217;52.586;13.442;2023-12-14T12:48:43;12.40;;;5.60;;
43626;SDS011;29217;52.586;13.442;2023-12-14T12:51:09;14.70;;;6.68;;
43626;SDS011;29217;52.586;13.442;2023-12-14T12:53:35;15.60;;;6.60;;
43626;SDS011;29217;52.586;13.442;2023-12-14T12:56:02;13.18;;;6.68;;
43626;SDS011;29217;52.586;13.442;2023-12-14T12:58:28;14.23;;;6.57;;
43626;SDS011;29217;52.586;13.442;2023-12-14T13:00:54;12.55;;;6.40;;
43626;SDS011;29217;52.586;13.442;2023-12-14T13:03:20;13.82;;;6.90;;
43626;SDS011;29217;52.586;13.442;2023-12-14T13:05:46;13.30;;;6.50;;
43626;SDS011;29217;52.586;13.442;2023-12-14T13:08:12;12.63;;;6.82;;
43626;SDS011;29217;52.586;13.442;2023-12-14T13:10:38;13.02;;;6.65;;
43626;SDS011;29217;52.586;13.442;2023-12-14T13:13:04;12.40;;;6.05;;
43626;SDS011;29217;52.586;13.442;2023-12-14T13:15:32;13.82;;;6.65;;
43626;SDS011;29217;52.586;13.442;2023-12-14T13:17:59;14.25;;;7.05;;
43626;SDS011;29217;52.586;13.442;2023-12-14T13:20:25;12.60;;;5.95;;
43626;SDS011;29217;52.586;13.442;2023-12-14T13:22:51;12.88;;;6.85;;
43626;SDS011;29217;52.586;13.442;2023-12-14T13:25:17;11.05;;;6.03;;
43626;SDS011;29217;52.586;13.442;2023-12-14T13:27:44;18.77;;;7.68;;
43626;SDS011;29217;52.586;13.442;2023-12-14T13:30:10;15.27;;;6.72;;
43626;SDS011;29217;52.586;13.442;2023-12-14T13:32:41;16.50;;;6.22;;
43626;SDS011;29217;52.586;13.442;2023-12-14T13:35:07;15.63;;;7.05;;
43626;SDS011;29217;52.586;13.442;2023-12-14T13:37:34;13.10;;;6.63;;
43626;SDS011;29217;52.586;13.442;2023-12-14T13:40:00;14.63;;;6.97;;
43626;SDS011;29217;52.586;13.442;2023-12-14T13:42:26;13.88;;;6.93;;
43626;SDS011;29217;52.586;13.442;2023-12-14T13:44:52;13.63;;;6.70;;
43626;SDS011;29217;52.586;13.442;2023-12-14T13:47:18;15.50;;;6.97;;
43626;SDS011;29217;52.586;13.442;2023-12-14T13:49:44;16.15;;;7.80;;
43626;SDS011;29217;52.586;13.442;2023-12-14T13:52:10;12.13;;;6.35;;
43626;SDS011;29217;52.586;13.442;2023-12-14T13:54:36;14.02;;;7.15;;
43626;SDS011;29217;52.586;13.442;2023-12-14T13:57:02;17.05;;;6.88;;
43626;SDS011;29217;52.586;13.442;2023-12-14T13:59:28;14.93;;;7.65;;
43626;SDS011;29217;52.586;13.442;2023-12-14T14:01:54;12.93;;;6.57;;
43626;SDS011;29217;52.586;13.442;2023-12-14T14:04:20;11.25;;;6.55;;
43626;SDS011;29217;52.586;13.442;2023-12-14T14:06:46;13.98;;;6.80;;
43626;SDS011;29217;52.586;13.442;2023-12-14T14:09:12;13.65;;;6.47;;
43626;SDS011;29217;52.586;13.442;2023-12-14T14:11:39;13.43;;;6.40;;
43626;SDS011;29217;52.586;13.442;2023-12-14T14:14:10;15.20;;;6.20;;
43626;SDS011;29217;52.586;13.442;2023-12-14T14:16:36;17.08;;;7.53;;
43626;SDS011;29217;52.586;13.442;2023-12-14T14:19:02;11.23;;;5.80;;